Main page
METAR-TAF:

METAR-TAF

Airports :

Jerez de la Frontera, Spain

Jerez Airport

latitude: 36-45N, longitude: 006-04W, elevation: 27 m

Current weather observation

The report was made 22 minutes ago, at 16:30 UTC
Wind 10 kt from the West, varying between Southwest and Northwest
Temperature 30°C
Humidity 33%
Pressure 1014 hPa
Visibility 10 km or more
no clouds below 1500 m and no cumulonimbus

METAR: LEJR 221630Z 26010KT 220V310 CAVOK 30/12 Q1014

Time: 18:52 (16:52 UTC)

Forecast

The report was made 5 hours and 52 minutes ago, at 11:00 UTC
Forecast valid from 22 at 12 UTC to 23 at 12 UTC
Wind 6 kt from the West/Northwest
Visibility 10 km or more
no clouds below 1500 m and no cumulonimbus

TAF: LEJR 221100Z 2212/2312 30006KT CAVOK TX32/2312Z TN18/2305Z

Weather observations and forecasts of more than 4000 airports (METAR and TAF reports).

The available stations are represented by yellow and red dots on the map.

Hover mouse over dot to see the name of the station.

Then click to see weather observations and forecasts.

To change the map : click on the green buttons with a black cross to zoom in, on the green button with a dash to zoom out, or on the green arrows for adjacent maps.


METAR-TAF: